sensor_id;sensor_type;location;lat;lon;timestamp;temperature;humidity
52024;DHT22;38038;45.922;13.604;2023-03-14T00:00:53;10.80;99.90
52024;DHT22;38038;45.922;13.604;2023-03-14T00:03:19;10.80;99.90
52024;DHT22;38038;45.922;13.604;2023-03-14T00:05:44;10.80;99.90
52024;DHT22;38038;45.922;13.604;2023-03-14T00:08:10;10.80;99.90
52024;DHT22;38038;45.922;13.604;2023-03-14T00:10:37;10.80;99.90
52024;DHT22;38038;45.922;13.604;2023-03-14T00:13:03;10.60;99.90
52024;DHT22;38038;45.922;13.604;2023-03-14T00:15:28;10.50;99.90
52024;DHT22;38038;45.922;13.604;2023-03-14T00:17:54;10.60;99.90
52024;DHT22;38038;45.922;13.604;2023-03-14T00:20:20;10.60;99.90
52024;DHT22;38038;45.922;13.604;2023-03-14T00:22:45;10.60;99.90
52024;DHT22;38038;45.922;13.604;2023-03-14T00:25:11;10.60;99.90
52024;DHT22;38038;45.922;13.604;2023-03-14T00:27:38;10.70;99.90
52024;DHT22;38038;45.922;13.604;2023-03-14T00:30:04;10.70;99.90
52024;DHT22;38038;45.922;13.604;2023-03-14T00:32:30;10.70;99.90
52024;DHT22;38038;45.922;13.604;2023-03-14T00:34:56;10.70;99.90
52024;DHT22;38038;45.922;13.604;2023-03-14T00:37:22;10.70;99.90
52024;DHT22;38038;45.922;13.604;2023-03-14T00:39:48;10.60;99.90
52024;DHT22;38038;45.922;13.604;2023-03-14T00:42:14;10.70;99.90
52024;DHT22;38038;45.922;13.604;2023-03-14T00:44:39;10.70;99.90
52024;DHT22;38038;45.922;13.604;2023-03-14T00:47:05;10.70;99.90
52024;DHT22;38038;45.922;13.604;2023-03-14T00:49:31;10.70;99.90
52024;DHT22;38038;45.922;13.604;2023-03-14T00:51:57;10.70;99.90
52024;DHT22;38038;45.922;13.604;2023-03-14T00:54:23;10.70;99.90
52024;DHT22;38038;45.922;13.604;2023-03-14T00:56:48;10.70;99.90
52024;DHT22;38038;45.922;13.604;2023-03-14T00:59:15;10.70;99.90
52024;DHT22;38038;45.922;13.604;2023-03-14T01:01:41;10.60;99.90
52024;DHT22;38038;45.922;13.604;2023-03-14T01:04:07;10.70;99.90
52024;DHT22;38038;45.922;13.604;2023-03-14T01:06:33;10.70;99.90
52024;DHT22;38038;45.922;13.604;2023-03-14T01:08:59;10.70;99.90
52024;DHT22;38038;45.922;13.604;2023-03-14T01:11:30;10.70;99.90
52024;DHT22;38038;45.922;13.604;2023-03-14T01:13:57;10.70;99.90
52024;DHT22;38038;45.922;13.604;2023-03-14T01:16:25;10.60;99.90
52024;DHT22;38038;45.922;13.604;2023-03-14T01:18:51;10.70;99.90
52024;DHT22;38038;45.922;13.604;2023-03-14T01:21:20;10.70;99.90
52024;DHT22;38038;45.922;13.604;2023-03-14T01:23:47;10.70;99.90
52024;DHT22;38038;45.922;13.604;2023-03-14T01:26:15;10.80;99.90
52024;DHT22;38038;45.922;13.604;2023-03-14T01:28:41;10.80;99.90
52024;DHT22;38038;45.922;13.604;2023-03-14T01:31:09;10.80;99.90
52024;DHT22;38038;45.922;13.604;2023-03-14T01:33:35;10.80;99.90
52024;DHT22;38038;45.922;13.604;2023-03-14T01:36:00;10.70;99.90
52024;DHT22;38038;45.922;13.604;2023-03-14T01:38:29;10.70;99.90
52024;DHT22;38038;45.922;13.604;2023-03-14T01:40:55;10.70;99.90
52024;DHT22;38038;45.922;13.604;2023-03-14T01:43:21;10.70;99.90
52024;DHT22;38038;45.922;13.604;2023-03-14T01:46:20;10.70;99.90
52024;DHT22;38038;45.922;13.604;2023-03-14T01:48:48;10.80;99.90
52024;DHT22;38038;45.922;13.604;2023-03-14T01:51:27;10.70;99.90
52024;DHT22;38038;45.922;13.604;2023-03-14T01:54:05;10.70;99.90
52024;DHT22;38038;45.922;13.604;2023-03-14T01:56:32;10.70;99.90
52024;DHT22;38038;45.922;13.604;2023-03-14T01:58:59;10.50;99.90
52024;DHT22;38038;45.922;13.604;2023-03-14T02:01:27;10.50;99.90
52024;DHT22;38038;45.922;13.604;2023-03-14T02:03:55;10.40;99.90
52024;DHT22;38038;45.922;13.604;2023-03-14T02:06:29;10.30;99.90
52024;DHT22;38038;45.922;13.604;2023-03-14T02:08:56;10.30;99.90
52024;DHT22;38038;45.922;13.604;2023-03-14T02:11:26;10.30;99.90
52024;DHT22;38038;45.922;13.604;2023-03-14T02:13:54;10.30;99.90
52024;DHT22;38038;45.922;13.604;2023-03-14T02:16:20;10.20;99.90
52024;DHT22;38038;45.922;13.604;2023-03-14T02:18:45;10.30;99.90
52024;DHT22;38038;45.922;13.604;2023-03-14T02:26:25;10.20;99.90
52024;DHT22;38038;45.922;13.604;2023-03-14T02:28:52;10.20;99.90
52024;DHT22;38038;45.922;13.604;2023-03-14T02:31:19;10.20;99.90
52024;DHT22;38038;45.922;13.604;2023-03-14T02:33:46;10.30;99.90
52024;DHT22;38038;45.922;13.604;2023-03-14T02:36:13;10.40;99.90
52024;DHT22;38038;45.922;13.604;2023-03-14T02:41:24;10.40;99.90
52024;DHT22;38038;45.922;13.604;2023-03-14T02:43:49;10.40;99.90
52024;DHT22;38038;45.922;13.604;2023-03-14T02:46:20;10.40;99.90
52024;DHT22;38038;45.922;13.604;2023-03-14T02:49:00;10.40;99.90
52024;DHT22;38038;45.922;13.604;2023-03-14T02:51:28;10.50;99.90
52024;DHT22;38038;45.922;13.604;2023-03-14T02:53:54;10.30;99.90
52024;DHT22;38038;45.922;13.604;2023-03-14T02:56:20;10.30;99.90
52024;DHT22;38038;45.922;13.604;2023-03-14T02:58:45;10.30;99.90
52024;DHT22;38038;45.922;13.604;2023-03-14T03:01:11;10.40;99.90
52024;DHT22;38038;45.922;13.604;2023-03-14T03:03:37;10.30;99.90
52024;DHT22;38038;45.922;13.604;2023-03-14T03:06:03;10.30;99.90
52024;DHT22;38038;45.922;13.604;2023-03-14T03:08:29;10.40;99.90
52024;DHT22;38038;45.922;13.604;2023-03-14T03:10:56;10.40;99.90
52024;DHT22;38038;45.922;13.604;2023-03-14T03:13:22;10.40;99.90
52024;DHT22;38038;45.922;13.604;2023-03-14T03:15:47;10.40;99.90
52024;DHT22;38038;45.922;13.604;2023-03-14T03:18:13;10.40;99.90
52024;DHT22;38038;45.922;13.604;2023-03-14T03:20:39;10.40;99.90
52024;DHT22;38038;45.922;13.604;2023-03-14T03:23:04;10.30;99.90
52024;DHT22;38038;45.922;13.604;2023-03-14T03:25:31;10.20;99.90
52024;DHT22;38038;45.922;13.604;2023-03-14T03:27:56;10.30;99.90
52024;DHT22;38038;45.922;13.604;2023-03-14T03:30:22;10.30;99.90
52024;DHT22;38038;45.922;13.604;2023-03-14T03:32:48;10.20;99.90
52024;DHT22;38038;45.922;13.604;2023-03-14T03:35:14;10.30;99.90
52024;DHT22;38038;45.922;13.604;2023-03-14T03:37:40;10.30;99.90
52024;DHT22;38038;45.922;13.604;2023-03-14T03:40:07;10.40;99.90
52024;DHT22;38038;45.922;13.604;2023-03-14T03:42:33;10.40;99.90
52024;DHT22;38038;45.922;13.604;2023-03-14T03:45:00;10.40;99.90
52024;DHT22;38038;45.922;13.604;2023-03-14T03:47:26;10.40;99.90
52024;DHT22;38038;45.922;13.604;2023-03-14T03:49:52;10.50;99.90
52024;DHT22;38038;45.922;13.604;2023-03-14T03:52:18;10.50;99.90
52024;DHT22;38038;45.922;13.604;2023-03-14T03:54:43;10.50;99.90
52024;DHT22;38038;45.922;13.604;2023-03-14T03:57:09;10.60;99.90
52024;DHT22;38038;45.922;13.604;2023-03-14T03:59:35;10.60;99.90
52024;DHT22;38038;45.922;13.604;2023-03-14T04:02:01;10.70;99.90
52024;DHT22;38038;45.922;13.604;2023-03-14T04:04:26;10.60;99.90
52024;DHT22;38038;45.922;13.604;2023-03-14T04:06:52;10.70;99.90
52024;DHT22;38038;45.922;13.604;2023-03-14T04:09:18;10.60;99.90
52024;DHT22;38038;45.922;13.604;2023-03-14T04:11:43;10.70;99.90
52024;DHT22;38038;45.922;13.604;2023-03-14T04:14:09;10.70;99.90
52024;DHT22;38038;45.922;13.604;2023-03-14T04:16:35;10.70;99.90
52024;DHT22;38038;45.922;13.604;2023-03-14T04:19:01;10.80;99.90
52024;DHT22;38038;45.922;13.604;2023-03-14T04:21:27;10.70;99.90
52024;DHT22;38038;45.922;13.604;2023-03-14T04:23:53;10.70;99.90
52024;DHT22;38038;45.922;13.604;2023-03-14T04:26:19;10.60;99.90
52024;DHT22;38038;45.922;13.604;2023-03-14T04:28:45;10.60;99.90
52024;DHT22;38038;45.922;13.604;2023-03-14T04:31:20;10.70;99.90
52024;DHT22;38038;45.922;13.604;2023-03-14T04:33:46;10.80;99.90
52024;DHT22;38038;45.922;13.604;2023-03-14T04:36:12;10.80;99.90
52024;DHT22;38038;45.922;13.604;2023-03-14T04:38:38;10.80;99.90
52024;DHT22;38038;45.922;13.604;2023-03-14T04:41:04;10.90;99.90
52024;DHT22;38038;45.922;13.604;2023-03-14T04:43:30;10.90;99.90
52024;DHT22;38038;45.922;13.604;2023-03-14T04:45:57;10.90;99.90
52024;DHT22;38038;45.922;13.604;2023-03-14T04:48:24;11.00;99.90
52024;DHT22;38038;45.922;13.604;2023-03-14T04:50:50;11.00;99.90
52024;DHT22;38038;45.922;13.604;2023-03-14T04:53:17;11.00;99.90
52024;DHT22;38038;45.922;13.604;2023-03-14T04:55:51;11.10;99.90
52024;DHT22;38038;45.922;13.604;2023-03-14T04:58:18;11.20;99.90
52024;DHT22;38038;45.922;13.604;2023-03-14T05:00:44;11.20;99.90
52024;DHT22;38038;45.922;13.604;2023-03-14T05:03:10;11.10;99.90
52024;DHT22;38038;45.922;13.604;2023-03-14T05:05:35;11.20;99.90
52024;DHT22;38038;45.922;13.604;2023-03-14T05:08:01;11.40;99.90
52024;DHT22;38038;45.922;13.604;2023-03-14T05:10:27;11.50;99.90
52024;DHT22;38038;45.922;13.604;2023-03-14T05:12:53;11.60;99.90
52024;DHT22;38038;45.922;13.604;2023-03-14T05:15:18;11.70;99.90
52024;DHT22;38038;45.922;13.604;2023-03-14T05:17:44;11.80;99.90
52024;DHT22;38038;45.922;13.604;2023-03-14T05:20:11;11.90;99.90
52024;DHT22;38038;45.922;13.604;2023-03-14T05:22:39;11.80;99.90
52024;DHT22;38038;45.922;13.604;2023-03-14T05:25:06;11.70;99.90
52024;DHT22;38038;45.922;13.604;2023-03-14T05:27:32;11.70;99.90
52024;DHT22;38038;45.922;13.604;2023-03-14T05:29:58;11.60;99.90
52024;DHT22;38038;45.922;13.604;2023-03-14T05:32:24;11.60;99.90
52024;DHT22;38038;45.922;13.604;2023-03-14T05:34:49;11.60;99.90
52024;DHT22;38038;45.922;13.604;2023-03-14T05:37:15;11.60;99.90
52024;DHT22;38038;45.922;13.604;2023-03-14T05:39:41;11.60;99.90
52024;DHT22;38038;45.922;13.604;2023-03-14T05:42:06;11.60;99.90
52024;DHT22;38038;45.922;13.604;2023-03-14T05:44:32;11.60;99.90
52024;DHT22;38038;45.922;13.604;2023-03-14T05:46:58;11.50;99.90
52024;DHT22;38038;45.922;13.604;2023-03-14T05:49:23;11.50;99.90
52024;DHT22;38038;45.922;13.604;2023-03-14T05:51:49;11.50;99.90
52024;DHT22;38038;45.922;13.604;2023-03-14T05:54:15;11.40;99.90
52024;DHT22;38038;45.922;13.604;2023-03-14T05:56:40;11.40;99.90
52024;DHT22;38038;45.922;13.604;2023-03-14T05:59:06;11.30;99.90
52024;DHT22;38038;45.922;13.604;2023-03-14T06:01:34;11.30;99.90
52024;DHT22;38038;45.922;13.604;2023-03-14T06:04:00;11.40;99.90
52024;DHT22;38038;45.922;13.604;2023-03-14T06:06:25;11.40;99.90
52024;DHT22;38038;45.922;13.604;2023-03-14T06:08:51;11.50;99.90
52024;DHT22;38038;45.922;13.604;2023-03-14T06:11:17;11.50;99.90
52024;DHT22;38038;45.922;13.604;2023-03-14T06:13:42;11.50;99.90
52024;DHT22;38038;45.922;13.604;2023-03-14T06:16:08;11.50;99.90
52024;DHT22;38038;45.922;13.604;2023-03-14T06:18:34;11.50;99.90
52024;DHT22;38038;45.922;13.604;2023-03-14T06:21:00;11.40;99.90
52024;DHT22;38038;45.922;13.604;2023-03-14T06:23:25;11.40;99.90
52024;DHT22;38038;45.922;13.604;2023-03-14T06:25:51;11.50;99.90
52024;DHT22;38038;45.922;13.604;2023-03-14T06:28:17;11.50;99.90
52024;DHT22;38038;45.922;13.604;2023-03-14T06:30:43;11.50;99.90
52024;DHT22;38038;45.922;13.604;2023-03-14T06:33:08;11.50;99.90
52024;DHT22;38038;45.922;13.604;2023-03-14T06:35:34;11.60;99.90
52024;DHT22;38038;45.922;13.604;2023-03-14T06:38:00;11.50;99.90
52024;DHT22;38038;45.922;13.604;2023-03-14T06:40:25;11.50;99.90
52024;DHT22;38038;45.922;13.604;2023-03-14T06:42:51;11.60;99.90
52024;DHT22;38038;45.922;13.604;2023-03-14T06:45:17;11.70;99.90
52024;DHT22;38038;45.922;13.604;2023-03-14T06:47:43;11.70;99.90
52024;DHT22;38038;45.922;13.604;2023-03-14T06:50:09;11.70;99.90
52024;DHT22;38038;45.922;13.604;2023-03-14T06:52:35;11.70;99.90
52024;DHT22;38038;45.922;13.604;2023-03-14T06:55:01;11.70;99.90
52024;DHT22;38038;45.922;13.604;2023-03-14T06:57:27;11.70;99.90
52024;DHT22;38038;45.922;13.604;2023-03-14T06:59:53;11.70;99.90
52024;DHT22;38038;45.922;13.604;2023-03-14T07:02:18;11.70;99.90
52024;DHT22;38038;45.922;13.604;2023-03-14T07:04:44;11.70;99.90
52024;DHT22;38038;45.922;13.604;2023-03-14T07:07:10;11.80;99.90
52024;DHT22;38038;45.922;13.604;2023-03-14T07:09:36;11.80;99.90
52024;DHT22;38038;45.922;13.604;2023-03-14T07:12:02;11.80;99.90
52024;DHT22;38038;45.922;13.604;2023-03-14T07:14:29;11.90;99.90
52024;DHT22;38038;45.922;13.604;2023-03-14T07:16:55;11.90;99.90
52024;DHT22;38038;45.922;13.604;2023-03-14T07:19:21;11.90;99.90
52024;DHT22;38038;45.922;13.604;2023-03-14T07:21:46;11.90;99.90
52024;DHT22;38038;45.922;13.604;2023-03-14T07:24:12;11.90;99.90
52024;DHT22;38038;45.922;13.604;2023-03-14T07:26:38;11.80;99.90
52024;DHT22;38038;45.922;13.604;2023-03-14T07:29:04;11.80;99.90
52024;DHT22;38038;45.922;13.604;2023-03-14T07:31:30;11.90;99.90
52024;DHT22;38038;45.922;13.604;2023-03-14T07:33:55;11.80;99.90
52024;DHT22;38038;45.922;13.604;2023-03-14T07:36:23;11.80;99.90
52024;DHT22;38038;45.922;13.604;2023-03-14T07:38:48;11.80;99.90
52024;DHT22;38038;45.922;13.604;2023-03-14T07:41:14;11.80;99.90
52024;DHT22;38038;45.922;13.604;2023-03-14T07:43:40;11.80;99.90
52024;DHT22;38038;45.922;13.604;2023-03-14T07:46:06;11.80;99.90
52024;DHT22;38038;45.922;13.604;2023-03-14T07:48:32;11.90;99.90
52024;DHT22;38038;45.922;13.604;2023-03-14T07:50:58;11.90;99.90
52024;DHT22;38038;45.922;13.604;2023-03-14T07:53:24;11.80;99.90
52024;DHT22;38038;45.922;13.604;2023-03-14T07:55:54;11.80;99.90
52024;DHT22;38038;45.922;13.604;2023-03-14T07:58:20;11.80;99.90
52024;DHT22;38038;45.922;13.604;2023-03-14T08:00:50;11.70;99.90
52024;DHT22;38038;45.922;13.604;2023-03-14T08:03:16;11.80;99.90
52024;DHT22;38038;45.922;13.604;2023-03-14T08:05:42;11.70;99.90
52024;DHT22;38038;45.922;13.604;2023-03-14T08:08:08;11.70;99.90
52024;DHT22;38038;45.922;13.604;2023-03-14T08:10:34;11.60;99.90
52024;DHT22;38038;45.922;13.604;2023-03-14T08:13:00;11.60;99.90
52024;DHT22;38038;45.922;13.604;2023-03-14T08:15:28;11.60;99.90
52024;DHT22;38038;45.922;13.604;2023-03-14T08:17:54;11.70;99.90
52024;DHT22;38038;45.922;13.604;2023-03-14T08:20:21;11.70;99.90
52024;DHT22;38038;45.922;13.604;2023-03-14T08:22:48;11.70;99.90
52024;DHT22;38038;45.922;13.604;2023-03-14T08:25:14;11.70;99.90
52024;DHT22;38038;45.922;13.604;2023-03-14T08:27:40;11.80;99.90
52024;DHT22;38038;45.922;13.604;2023-03-14T08:30:09;11.80;99.90
52024;DHT22;38038;45.922;13.604;2023-03-14T08:32:35;11.90;99.90
52024;DHT22;38038;45.922;13.604;2023-03-14T08:35:01;11.90;99.90
52024;DHT22;38038;45.922;13.604;2023-03-14T08:37:27;12.10;99.90
52024;DHT22;38038;45.922;13.604;2023-03-14T08:39:53;12.00;99.90
52024;DHT22;38038;45.922;13.604;2023-03-14T08:42:19;12.00;99.90
52024;DHT22;38038;45.922;13.604;2023-03-14T08:44:45;12.00;99.90
52024;DHT22;38038;45.922;13.604;2023-03-14T08:47:10;11.90;99.90
52024;DHT22;38038;45.922;13.604;2023-03-14T08:49:36;11.80;99.90
52024;DHT22;38038;45.922;13.604;2023-03-14T08:52:03;11.90;99.90
52024;DHT22;38038;45.922;13.604;2023-03-14T08:54:30;11.90;99.90
52024;DHT22;38038;45.922;13.604;2023-03-14T08:56:56;12.00;99.90
52024;DHT22;38038;45.922;13.604;2023-03-14T08:59:22;12.00;99.90
52024;DHT22;38038;45.922;13.604;2023-03-14T09:01:48;12.00;99.90
52024;DHT22;38038;45.922;13.604;2023-03-14T09:04:14;12.10;99.90
52024;DHT22;38038;45.922;13.604;2023-03-14T09:06:40;12.10;99.90
52024;DHT22;38038;45.922;13.604;2023-03-14T09:09:05;12.10;99.90
52024;DHT22;38038;45.922;13.604;2023-03-14T09:11:31;12.10;99.90
52024;DHT22;38038;45.922;13.604;2023-03-14T09:13:57;12.20;99.90
52024;DHT22;38038;45.922;13.604;2023-03-14T09:16:23;12.30;99.90
52024;DHT22;38038;45.922;13.604;2023-03-14T09:18:48;12.30;99.90
52024;DHT22;38038;45.922;13.604;2023-03-14T09:21:14;12.40;99.90
52024;DHT22;38038;45.922;13.604;2023-03-14T09:23:41;12.40;99.90
52024;DHT22;38038;45.922;13.604;2023-03-14T09:26:07;12.50;99.90
52024;DHT22;38038;45.922;13.604;2023-03-14T09:28:33;12.60;99.90
52024;DHT22;38038;45.922;13.604;2023-03-14T09:31:08;12.70;99.90
52024;DHT22;38038;45.922;13.604;2023-03-14T09:33:34;12.80;99.90
52024;DHT22;38038;45.922;13.604;2023-03-14T09:36:00;12.70;99.90
52024;DHT22;38038;45.922;13.604;2023-03-14T09:38:26;12.70;99.90
52024;DHT22;38038;45.922;13.604;2023-03-14T09:40:53;12.50;99.90
52024;DHT22;38038;45.922;13.604;2023-03-14T09:43:21;12.40;99.90
52024;DHT22;38038;45.922;13.604;2023-03-14T09:45:48;12.40;99.90
52024;DHT22;38038;45.922;13.604;2023-03-14T09:48:21;12.30;99.90
52024;DHT22;38038;45.922;13.604;2023-03-14T09:50:51;12.30;99.90
52024;DHT22;38038;45.922;13.604;2023-03-14T09:53:21;12.40;99.90
52024;DHT22;38038;45.922;13.604;2023-03-14T09:55:50;12.50;99.90
52024;DHT22;38038;45.922;13.604;2023-03-14T09:58:19;12.30;99.90
52024;DHT22;38038;45.922;13.604;2023-03-14T10:00:45;12.30;99.90
52024;DHT22;38038;45.922;13.604;2023-03-14T10:05:37;12.30;99.90
52024;DHT22;38038;45.922;13.604;2023-03-14T10:08:03;12.40;99.90
52024;DHT22;38038;45.922;13.604;2023-03-14T10:10:30;12.30;99.90
52024;DHT22;38038;45.922;13.604;2023-03-14T10:15:32;12.40;99.90
52024;DHT22;38038;45.922;13.604;2023-03-14T10:18:00;12.30;99.90
52024;DHT22;38038;45.922;13.604;2023-03-14T10:20:31;12.30;99.90
52024;DHT22;38038;45.922;13.604;2023-03-14T10:23:24;12.40;99.90
52024;DHT22;38038;45.922;13.604;2023-03-14T10:26:19;12.40;99.90
52024;DHT22;38038;45.922;13.604;2023-03-14T10:28:54;12.30;99.90
52024;DHT22;38038;45.922;13.604;2023-03-14T10:31:26;12.30;99.90
52024;DHT22;38038;45.922;13.604;2023-03-14T10:34:04;12.30;99.90
52024;DHT22;38038;45.922;13.604;2023-03-14T10:36:32;12.40;99.90
52024;DHT22;38038;45.922;13.604;2023-03-14T10:39:24;12.40;99.90
52024;DHT22;38038;45.922;13.604;2023-03-14T10:42:01;12.40;99.90
52024;DHT22;38038;45.922;13.604;2023-03-14T10:44:28;12.40;99.90
52024;DHT22;38038;45.922;13.604;2023-03-14T10:46:58;12.40;99.90
52024;DHT22;38038;45.922;13.604;2023-03-14T10:49:35;12.20;99.90
52024;DHT22;38038;45.922;13.604;2023-03-14T10:52:25;12.10;99.90
52024;DHT22;38038;45.922;13.604;2023-03-14T10:55:17;12.10;99.90
52024;DHT22;38038;45.922;13.604;2023-03-14T10:57:44;12.00;99.90
52024;DHT22;38038;45.922;13.604;2023-03-14T11:00:18;11.90;99.90
52024;DHT22;38038;45.922;13.604;2023-03-14T11:07:45;11.80;99.90
52024;DHT22;38038;45.922;13.604;2023-03-14T11:10:35;11.70;99.90
52024;DHT22;38038;45.922;13.604;2023-03-14T11:13:17;11.80;99.90
52024;DHT22;38038;45.922;13.604;2023-03-14T11:19:08;11.70;99.90
52024;DHT22;38038;45.922;13.604;2023-03-14T11:21:44;11.70;99.90
52024;DHT22;38038;45.922;13.604;2023-03-14T11:40:48;11.80;99.90
52024;DHT22;38038;45.922;13.604;2023-03-14T11:45:56;11.60;99.90
52024;DHT22;38038;45.922;13.604;2023-03-14T11:50:57;11.60;99.90
52024;DHT22;38038;45.922;13.604;2023-03-14T11:53:46;11.80;99.90
52024;DHT22;38038;45.922;13.604;2023-03-14T11:56:37;11.60;99.90
52024;DHT22;38038;45.922;13.604;2023-03-14T11:59:14;11.70;99.90
52024;DHT22;38038;45.922;13.604;2023-03-14T12:01:53;11.60;99.90
52024;DHT22;38038;45.922;13.604;2023-03-14T12:04:31;11.60;99.90
52024;DHT22;38038;45.922;13.604;2023-03-14T12:07:06;11.60;99.90
52024;DHT22;38038;45.922;13.604;2023-03-14T12:09:35;11.50;99.90
52024;DHT22;38038;45.922;13.604;2023-03-14T12:12:03;11.50;99.90
52024;DHT22;38038;45.922;13.604;2023-03-14T12:14:34;11.40;99.90
52024;DHT22;38038;45.922;13.604;2023-03-14T12:17:18;11.50;99.90
52024;DHT22;38038;45.922;13.604;2023-03-14T12:19:45;11.50;99.90
52024;DHT22;38038;45.922;13.604;2023-03-14T12:22:34;11.50;99.90
52024;DHT22;38038;45.922;13.604;2023-03-14T12:25:15;11.50;99.90
52024;DHT22;38038;45.922;13.604;2023-03-14T12:30:38;11.50;99.90
52024;DHT22;38038;45.922;13.604;2023-03-14T12:35:38;11.50;99.90
52024;DHT22;38038;45.922;13.604;2023-03-14T12:43:39;11.70;99.90
52024;DHT22;38038;45.922;13.604;2023-03-14T12:48:53;11.50;99.90
52024;DHT22;38038;45.922;13.604;2023-03-14T12:51:37;11.50;99.90
52024;DHT22;38038;45.922;13.604;2023-03-14T12:54:40;11.50;99.90
52024;DHT22;38038;45.922;13.604;2023-03-14T12:59:58;11.60;99.90
52024;DHT22;38038;45.922;13.604;2023-03-14T13:02:29;11.40;99.90
52024;DHT22;38038;45.922;13.604;2023-03-14T13:07:31;11.40;99.90
52024;DHT22;38038;45.922;13.604;2023-03-14T13:18:16;11.50;99.90
52024;DHT22;38038;45.922;13.604;2023-03-14T13:20:51;11.60;99.90
52024;DHT22;38038;45.922;13.604;2023-03-14T13:23:26;11.70;99.90
52024;DHT22;38038;45.922;13.604;2023-03-14T13:25:52;11.70;99.90
52024;DHT22;38038;45.922;13.604;2023-03-14T13:28:18;11.90;99.90
52024;DHT22;38038;45.922;13.604;2023-03-14T13:30:46;11.90;99.90
52024;DHT22;38038;45.922;13.604;2023-03-14T13:33:15;12.00;99.90
52024;DHT22;38038;45.922;13.604;2023-03-14T13:35:46;12.10;99.90
52024;DHT22;38038;45.922;13.604;2023-03-14T13:38:33;12.00;99.90
52024;DHT22;38038;45.922;13.604;2023-03-14T13:41:04;12.10;99.90
52024;DHT22;38038;45.922;13.604;2023-03-14T13:43:33;12.20;99.90
52024;DHT22;38038;45.922;13.604;2023-03-14T13:46:05;12.30;99.90
52024;DHT22;38038;45.922;13.604;2023-03-14T13:48:34;12.20;99.90
52024;DHT22;38038;45.922;13.604;2023-03-14T13:51:05;12.10;99.90
52024;DHT22;38038;45.922;13.604;2023-03-14T13:53:33;12.00;99.90
52024;DHT22;38038;45.922;13.604;2023-03-14T13:56:10;11.80;99.90
52024;DHT22;38038;45.922;13.604;2023-03-14T13:58:37;11.70;99.90
52024;DHT22;38038;45.922;13.604;2023-03-14T14:03:52;11.60;99.90
52024;DHT22;38038;45.922;13.604;2023-03-14T14:06:28;11.40;99.90
52024;DHT22;38038;45.922;13.604;2023-03-14T14:08:57;11.60;99.90
52024;DHT22;38038;45.922;13.604;2023-03-14T14:11:43;11.70;99.90
52024;DHT22;38038;45.922;13.604;2023-03-14T14:14:39;11.70;99.90
52024;DHT22;38038;45.922;13.604;2023-03-14T14:17:10;11.60;99.90
52024;DHT22;38038;45.922;13.604;2023-03-14T14:19:37;11.60;99.90
52024;DHT22;38038;45.922;13.604;2023-03-14T14:22:04;11.60;99.90
52024;DHT22;38038;45.922;13.604;2023-03-14T14:24:31;11.60;99.90
52024;DHT22;38038;45.922;13.604;2023-03-14T14:27:10;11.50;99.90
52024;DHT22;38038;45.922;13.604;2023-03-14T14:29:38;11.50;99.90
52024;DHT22;38038;45.922;13.604;2023-03-14T14:32:12;11.60;99.90
52024;DHT22;38038;45.922;13.604;2023-03-14T14:39:48;11.60;99.90
52024;DHT22;38038;45.922;13.604;2023-03-14T14:42:18;11.60;99.90
52024;DHT22;38038;45.922;13.604;2023-03-14T14:44:48;11.50;99.90
52024;DHT22;38038;45.922;13.604;2023-03-14T14:47:18;11.50;99.90
52024;DHT22;38038;45.922;13.604;2023-03-14T14:49:47;11.30;99.90
52024;DHT22;38038;45.922;13.604;2023-03-14T14:52:16;11.20;99.90
52024;DHT22;38038;45.922;13.604;2023-03-14T14:55:12;11.20;99.90
52024;DHT22;38038;45.922;13.604;2023-03-14T14:57:38;11.20;99.90
52024;DHT22;38038;45.922;13.604;2023-03-14T15:00:09;11.20;99.90
52024;DHT22;38038;45.922;13.604;2023-03-14T15:02:40;11.20;99.90
52024;DHT22;38038;45.922;13.604;2023-03-14T15:05:18;11.30;99.90
52024;DHT22;38038;45.922;13.604;2023-03-14T15:07:45;11.30;99.90
52024;DHT22;38038;45.922;13.604;2023-03-14T15:10:17;11.30;99.90
52024;DHT22;38038;45.922;13.604;2023-03-14T15:12:43;11.30;99.90
52024;DHT22;38038;45.922;13.604;2023-03-14T15:15:10;11.30;99.90
52024;DHT22;38038;45.922;13.604;2023-03-14T15:17:36;11.30;99.90
52024;DHT22;38038;45.922;13.604;2023-03-14T15:20:09;11.30;99.90
52024;DHT22;38038;45.922;13.604;2023-03-14T15:22:35;11.20;99.90
52024;DHT22;38038;45.922;13.604;2023-03-14T15:25:01;11.30;99.90
52024;DHT22;38038;45.922;13.604;2023-03-14T15:27:28;11.30;99.90
52024;DHT22;38038;45.922;13.604;2023-03-14T15:29:55;11.30;99.90
52024;DHT22;38038;45.922;13.604;2023-03-14T15:32:21;11.30;99.90
52024;DHT22;38038;45.922;13.604;2023-03-14T15:34:46;11.30;99.90
52024;DHT22;38038;45.922;13.604;2023-03-14T15:37:14;11.30;99.90
52024;DHT22;38038;45.922;13.604;2023-03-14T15:39:41;11.30;99.90
52024;DHT22;38038;45.922;13.604;2023-03-14T15:42:07;11.40;99.90
52024;DHT22;38038;45.922;13.604;2023-03-14T15:44:34;11.30;99.90
52024;DHT22;38038;45.922;13.604;2023-03-14T15:47:00;11.30;99.90
52024;DHT22;38038;45.922;13.604;2023-03-14T15:49:26;11.30;99.90
52024;DHT22;38038;45.922;13.604;2023-03-14T15:51:52;11.40;99.90
52024;DHT22;38038;45.922;13.604;2023-03-14T15:54:17;11.40;99.90
52024;DHT22;38038;45.922;13.604;2023-03-14T15:56:43;11.40;99.90
52024;DHT22;38038;45.922;13.604;2023-03-14T15:59:09;11.50;99.90
52024;DHT22;38038;45.922;13.604;2023-03-14T16:01:34;11.40;99.90
52024;DHT22;38038;45.922;13.604;2023-03-14T16:04:00;11.40;99.90
52024;DHT22;38038;45.922;13.604;2023-03-14T16:06:27;11.40;99.90
52024;DHT22;38038;45.922;13.604;2023-03-14T16:08:53;11.50;99.90
52024;DHT22;38038;45.922;13.604;2023-03-14T16:11:19;11.50;99.90
52024;DHT22;38038;45.922;13.604;2023-03-14T16:13:45;11.50;99.90
52024;DHT22;38038;45.922;13.604;2023-03-14T16:16:12;11.50;99.90
52024;DHT22;38038;45.922;13.604;2023-03-14T16:18:38;11.40;99.90
52024;DHT22;38038;45.922;13.604;2023-03-14T16:21:07;11.50;99.90
52024;DHT22;38038;45.922;13.604;2023-03-14T16:23:34;11.50;99.90
52024;DHT22;38038;45.922;13.604;2023-03-14T16:26:03;11.60;99.90
52024;DHT22;38038;45.922;13.604;2023-03-14T16:28:30;11.50;99.90
52024;DHT22;38038;45.922;13.604;2023-03-14T16:31:03;11.50;99.90
52024;DHT22;38038;45.922;13.604;2023-03-14T16:33:30;11.50;99.90
52024;DHT22;38038;45.922;13.604;2023-03-14T16:35:57;11.40;99.90
52024;DHT22;38038;45.922;13.604;2023-03-14T16:38:25;11.40;99.90
52024;DHT22;38038;45.922;13.604;2023-03-14T16:41:02;11.40;99.90